sensor_id;sensor_type;location;lat;lon;timestamp;P1;durP1;ratioP1;P2;durP2;ratioP2
3004;SDS011;1512;51.486;6.610;2023-07-20T00:01:25;5.70;;;4.50;;
3004;SDS011;1512;51.486;6.610;2023-07-20T00:05:34;4.27;;;3.80;;
3004;SDS011;1512;51.486;6.610;2023-07-20T00:09:42;5.23;;;4.70;;
3004;SDS011;1512;51.486;6.610;2023-07-20T00:13:51;6.00;;;4.77;;
3004;SDS011;1512;51.486;6.610;2023-07-20T00:18:00;7.50;;;4.90;;
3004;SDS011;1512;51.486;6.610;2023-07-20T00:22:08;6.27;;;5.13;;
3004;SDS011;1512;51.486;6.610;2023-07-20T00:26:17;8.97;;;5.53;;
3004;SDS011;1512;51.486;6.610;2023-07-20T00:30:27;6.67;;;5.50;;
3004;SDS011;1512;51.486;6.610;2023-07-20T00:34:36;5.97;;;4.70;;
3004;SDS011;1512;51.486;6.610;2023-07-20T00:38:44;10.67;;;4.93;;
3004;SDS011;1512;51.486;6.610;2023-07-20T00:42:53;5.80;;;4.93;;
3004;SDS011;1512;51.486;6.610;2023-07-20T00:47:02;8.10;;;5.13;;
3004;SDS011;1512;51.486;6.610;2023-07-20T00:51:11;6.23;;;4.33;;
3004;SDS011;1512;51.486;6.610;2023-07-20T00:55:20;4.77;;;4.27;;
3004;SDS011;1512;51.486;6.610;2023-07-20T00:59:28;5.30;;;4.80;;
3004;SDS011;1512;51.486;6.610;2023-07-20T01:03:37;7.17;;;5.30;;
3004;SDS011;1512;51.486;6.610;2023-07-20T01:07:48;9.20;;;5.20;;
3004;SDS011;1512;51.486;6.610;2023-07-20T01:12:02;6.00;;;5.07;;
3004;SDS011;1512;51.486;6.610;2023-07-20T01:16:21;5.33;;;4.37;;
3004;SDS011;1512;51.486;6.610;2023-07-20T01:20:32;7.13;;;5.10;;
3004;SDS011;1512;51.486;6.610;2023-07-20T01:24:50;5.10;;;4.60;;
3004;SDS011;1512;51.486;6.610;2023-07-20T01:33:29;8.83;;;6.13;;
3004;SDS011;1512;51.486;6.610;2023-07-20T01:37:44;8.50;;;5.80;;
3004;SDS011;1512;51.486;6.610;2023-07-20T01:41:54;8.55;;;5.33;;
3004;SDS011;1512;51.486;6.610;2023-07-20T01:46:03;13.33;;;6.50;;
3004;SDS011;1512;51.486;6.610;2023-07-20T01:50:12;9.67;;;5.77;;
3004;SDS011;1512;51.486;6.610;2023-07-20T01:54:21;7.30;;;5.33;;
3004;SDS011;1512;51.486;6.610;2023-07-20T01:58:29;7.00;;;5.50;;
3004;SDS011;1512;51.486;6.610;2023-07-20T02:02:38;13.33;;;7.40;;
3004;SDS011;1512;51.486;6.610;2023-07-20T02:06:47;9.40;;;6.57;;
3004;SDS011;1512;51.486;6.610;2023-07-20T02:10:55;8.27;;;6.27;;
3004;SDS011;1512;51.486;6.610;2023-07-20T02:15:04;8.80;;;6.50;;
3004;SDS011;1512;51.486;6.610;2023-07-20T02:19:14;9.40;;;6.13;;
3004;SDS011;1512;51.486;6.610;2023-07-20T02:23:22;9.40;;;6.70;;
3004;SDS011;1512;51.486;6.610;2023-07-20T02:27:31;12.30;;;7.25;;
3004;SDS011;1512;51.486;6.610;2023-07-20T02:31:40;10.82;;;7.53;;
3004;SDS011;1512;51.486;6.610;2023-07-20T02:35:50;9.00;;;7.63;;
3004;SDS011;1512;51.486;6.610;2023-07-20T02:39:59;9.03;;;7.07;;
3004;SDS011;1512;51.486;6.610;2023-07-20T02:44:07;8.87;;;6.60;;
3004;SDS011;1512;51.486;6.610;2023-07-20T02:48:16;8.33;;;6.33;;
3004;SDS011;1512;51.486;6.610;2023-07-20T02:52:25;10.13;;;8.40;;
3004;SDS011;1512;51.486;6.610;2023-07-20T02:56:34;11.37;;;8.00;;
3004;SDS011;1512;51.486;6.610;2023-07-20T03:00:43;10.03;;;7.20;;
3004;SDS011;1512;51.486;6.610;2023-07-20T03:04:51;9.97;;;6.60;;
3004;SDS011;1512;51.486;6.610;2023-07-20T03:09:01;10.10;;;7.47;;
3004;SDS011;1512;51.486;6.610;2023-07-20T03:13:10;11.17;;;7.83;;
3004;SDS011;1512;51.486;6.610;2023-07-20T03:17:21;9.10;;;7.80;;
3004;SDS011;1512;51.486;6.610;2023-07-20T03:21:29;11.07;;;8.30;;
3004;SDS011;1512;51.486;6.610;2023-07-20T03:25:38;12.90;;;7.30;;
3004;SDS011;1512;51.486;6.610;2023-07-20T03:29:47;11.67;;;9.10;;
3004;SDS011;1512;51.486;6.610;2023-07-20T03:33:55;10.57;;;8.07;;
3004;SDS011;1512;51.486;6.610;2023-07-20T03:38:04;9.90;;;8.25;;
3004;SDS011;1512;51.486;6.610;2023-07-20T03:42:13;14.63;;;9.90;;
3004;SDS011;1512;51.486;6.610;2023-07-20T03:46:22;11.43;;;9.20;;
3004;SDS011;1512;51.486;6.610;2023-07-20T03:50:31;16.57;;;10.30;;
3004;SDS011;1512;51.486;6.610;2023-07-20T03:54:40;15.30;;;11.50;;
3004;SDS011;1512;51.486;6.610;2023-07-20T03:58:49;17.90;;;12.87;;
3004;SDS011;1512;51.486;6.610;2023-07-20T04:02:58;22.00;;;11.83;;
3004;SDS011;1512;51.486;6.610;2023-07-20T04:07:07;16.90;;;10.07;;
3004;SDS011;1512;51.486;6.610;2023-07-20T04:11:15;16.40;;;11.90;;
3004;SDS011;1512;51.486;6.610;2023-07-20T04:15:24;17.13;;;11.60;;
3004;SDS011;1512;51.486;6.610;2023-07-20T04:19:33;12.30;;;9.93;;
3004;SDS011;1512;51.486;6.610;2023-07-20T04:23:41;13.60;;;11.60;;
3004;SDS011;1512;51.486;6.610;2023-07-20T04:27:50;11.27;;;10.13;;
3004;SDS011;1512;51.486;6.610;2023-07-20T04:32:02;18.23;;;12.30;;
3004;SDS011;1512;51.486;6.610;2023-07-20T04:36:11;14.03;;;10.70;;
3004;SDS011;1512;51.486;6.610;2023-07-20T04:40:21;15.03;;;10.90;;
3004;SDS011;1512;51.486;6.610;2023-07-20T04:44:30;12.43;;;10.07;;
3004;SDS011;1512;51.486;6.610;2023-07-20T04:48:38;13.70;;;9.83;;
3004;SDS011;1512;51.486;6.610;2023-07-20T04:52:47;11.40;;;9.00;;
3004;SDS011;1512;51.486;6.610;2023-07-20T05:01:24;11.07;;;9.10;;
3004;SDS011;1512;51.486;6.610;2023-07-20T05:05:34;10.70;;;8.40;;
3004;SDS011;1512;51.486;6.610;2023-07-20T05:09:43;12.30;;;9.67;;
3004;SDS011;1512;51.486;6.610;2023-07-20T05:13:52;10.00;;;8.37;;
3004;SDS011;1512;51.486;6.610;2023-07-20T05:18:01;13.20;;;7.87;;
3004;SDS011;1512;51.486;6.610;2023-07-20T05:22:10;12.10;;;8.80;;
3004;SDS011;1512;51.486;6.610;2023-07-20T05:26:20;11.00;;;7.93;;
3004;SDS011;1512;51.486;6.610;2023-07-20T05:30:29;8.97;;;8.07;;
3004;SDS011;1512;51.486;6.610;2023-07-20T05:34:38;10.93;;;7.80;;
3004;SDS011;1512;51.486;6.610;2023-07-20T05:43:15;8.80;;;6.63;;
3004;SDS011;1512;51.486;6.610;2023-07-20T05:47:23;8.73;;;6.87;;
3004;SDS011;1512;51.486;6.610;2023-07-20T05:51:32;7.00;;;6.23;;
3004;SDS011;1512;51.486;6.610;2023-07-20T05:55:42;11.90;;;7.23;;
3004;SDS011;1512;51.486;6.610;2023-07-20T05:59:51;9.43;;;7.20;;
3004;SDS011;1512;51.486;6.610;2023-07-20T06:03:59;7.90;;;7.00;;
3004;SDS011;1512;51.486;6.610;2023-07-20T06:08:08;7.23;;;6.40;;
3004;SDS011;1512;51.486;6.610;2023-07-20T06:12:17;6.60;;;5.87;;
3004;SDS011;1512;51.486;6.610;2023-07-20T06:16:25;6.63;;;5.20;;
3004;SDS011;1512;51.486;6.610;2023-07-20T06:20:34;6.60;;;5.63;;
3004;SDS011;1512;51.486;6.610;2023-07-20T06:24:43;5.43;;;4.90;;
3004;SDS011;1512;51.486;6.610;2023-07-20T06:28:52;9.27;;;6.30;;
3004;SDS011;1512;51.486;6.610;2023-07-20T06:37:29;6.77;;;5.50;;
3004;SDS011;1512;51.486;6.610;2023-07-20T06:41:37;6.03;;;5.17;;
3004;SDS011;1512;51.486;6.610;2023-07-20T06:45:51;8.33;;;5.70;;
3004;SDS011;1512;51.486;6.610;2023-07-20T06:50:01;6.27;;;5.67;;
3004;SDS011;1512;51.486;6.610;2023-07-20T06:54:10;5.23;;;4.73;;
3004;SDS011;1512;51.486;6.610;2023-07-20T06:58:19;5.53;;;4.93;;
3004;SDS011;1512;51.486;6.610;2023-07-20T07:02:29;5.03;;;4.30;;
3004;SDS011;1512;51.486;6.610;2023-07-20T07:06:38;8.60;;;4.90;;
3004;SDS011;1512;51.486;6.610;2023-07-20T07:10:47;5.07;;;4.30;;
3004;SDS011;1512;51.486;6.610;2023-07-20T07:14:55;4.47;;;4.07;;
3004;SDS011;1512;51.486;6.610;2023-07-20T07:19:05;6.50;;;4.30;;
3004;SDS011;1512;51.486;6.610;2023-07-20T07:23:15;5.07;;;4.57;;
3004;SDS011;1512;51.486;6.610;2023-07-20T07:27:24;6.33;;;4.67;;
3004;SDS011;1512;51.486;6.610;2023-07-20T07:31:34;7.60;;;4.53;;
3004;SDS011;1512;51.486;6.610;2023-07-20T07:35:46;8.73;;;4.57;;
3004;SDS011;1512;51.486;6.610;2023-07-20T07:40:00;7.60;;;4.37;;
3004;SDS011;1512;51.486;6.610;2023-07-20T07:44:10;4.80;;;4.40;;
3004;SDS011;1512;51.486;6.610;2023-07-20T07:48:18;5.00;;;4.50;;
3004;SDS011;1512;51.486;6.610;2023-07-20T07:52:34;3.70;;;3.40;;
3004;SDS011;1512;51.486;6.610;2023-07-20T07:56:44;3.77;;;3.47;;
3004;SDS011;1512;51.486;6.610;2023-07-20T08:00:53;3.10;;;2.63;;
3004;SDS011;1512;51.486;6.610;2023-07-20T08:05:01;3.63;;;2.60;;
3004;SDS011;1512;51.486;6.610;2023-07-20T08:09:10;7.00;;;5.20;;
3004;SDS011;1512;51.486;6.610;2023-07-20T08:13:19;4.30;;;3.90;;
3004;SDS011;1512;51.486;6.610;2023-07-20T08:17:27;3.20;;;2.90;;
3004;SDS011;1512;51.486;6.610;2023-07-20T08:21:37;3.70;;;3.30;;
3004;SDS011;1512;51.486;6.610;2023-07-20T08:25:45;3.80;;;3.10;;
3004;SDS011;1512;51.486;6.610;2023-07-20T08:29:54;4.17;;;2.90;;
3004;SDS011;1512;51.486;6.610;2023-07-20T08:34:04;2.77;;;2.47;;
3004;SDS011;1512;51.486;6.610;2023-07-20T08:38:14;2.67;;;2.47;;
3004;SDS011;1512;51.486;6.610;2023-07-20T08:42:23;3.03;;;2.80;;
3004;SDS011;1512;51.486;6.610;2023-07-20T08:46:33;2.80;;;2.60;;
3004;SDS011;1512;51.486;6.610;2023-07-20T08:50:42;2.67;;;2.10;;
3004;SDS011;1512;51.486;6.610;2023-07-20T08:54:53;3.23;;;2.50;;
3004;SDS011;1512;51.486;6.610;2023-07-20T08:59:02;2.37;;;2.17;;
3004;SDS011;1512;51.486;6.610;2023-07-20T09:03:11;2.93;;;2.23;;
3004;SDS011;1512;51.486;6.610;2023-07-20T09:07:21;2.80;;;2.50;;
3004;SDS011;1512;51.486;6.610;2023-07-20T09:11:31;2.70;;;2.37;;
3004;SDS011;1512;51.486;6.610;2023-07-20T09:15:39;6.30;;;2.47;;
3004;SDS011;1512;51.486;6.610;2023-07-20T09:19:57;2.40;;;2.20;;
3004;SDS011;1512;51.486;6.610;2023-07-20T09:24:06;4.17;;;2.47;;
3004;SDS011;1512;51.486;6.610;2023-07-20T09:28:15;2.70;;;2.50;;
3004;SDS011;1512;51.486;6.610;2023-07-20T09:32:23;4.00;;;2.60;;
3004;SDS011;1512;51.486;6.610;2023-07-20T09:45:35;2.33;;;2.13;;
3004;SDS011;1512;51.486;6.610;2023-07-20T09:49:47;3.40;;;2.50;;
3004;SDS011;1512;51.486;6.610;2023-07-20T09:53:57;2.47;;;2.27;;
3004;SDS011;1512;51.486;6.610;2023-07-20T09:58:06;2.33;;;2.00;;
3004;SDS011;1512;51.486;6.610;2023-07-20T10:02:28;2.60;;;2.40;;
3004;SDS011;1512;51.486;6.610;2023-07-20T10:06:32;2.77;;;2.17;;
3004;SDS011;1512;51.486;6.610;2023-07-20T10:10:43;2.47;;;2.27;;
3004;SDS011;1512;51.486;6.610;2023-07-20T10:15:04;3.13;;;2.00;;
3004;SDS011;1512;51.486;6.610;2023-07-20T10:19:13;2.50;;;2.30;;
3004;SDS011;1512;51.486;6.610;2023-07-20T10:23:24;2.03;;;1.80;;
3004;SDS011;1512;51.486;6.610;2023-07-20T10:27:54;2.47;;;1.87;;
3004;SDS011;1512;51.486;6.610;2023-07-20T10:32:06;2.43;;;1.90;;
3004;SDS011;1512;51.486;6.610;2023-07-20T10:36:16;1.83;;;1.73;;
3004;SDS011;1512;51.486;6.610;2023-07-20T10:40:29;2.00;;;1.80;;
3004;SDS011;1512;51.486;6.610;2023-07-20T10:44:40;2.37;;;2.17;;
3004;SDS011;1512;51.486;6.610;2023-07-20T10:48:59;2.73;;;1.93;;
3004;SDS011;1512;51.486;6.610;2023-07-20T10:53:10;2.23;;;2.07;;
3004;SDS011;1512;51.486;6.610;2023-07-20T10:57:29;2.60;;;2.40;;
3004;SDS011;1512;51.486;6.610;2023-07-20T11:01:38;2.60;;;2.40;;
3004;SDS011;1512;51.486;6.610;2023-07-20T11:05:49;2.27;;;1.93;;
3004;SDS011;1512;51.486;6.610;2023-07-20T11:10:02;3.30;;;2.13;;
3004;SDS011;1512;51.486;6.610;2023-07-20T11:14:11;1.80;;;1.70;;
3004;SDS011;1512;51.486;6.610;2023-07-20T11:18:32;2.20;;;2.00;;
3004;SDS011;1512;51.486;6.610;2023-07-20T11:22:43;2.37;;;1.83;;
3004;SDS011;1512;51.486;6.610;2023-07-20T11:26:52;2.40;;;2.20;;
3004;SDS011;1512;51.486;6.610;2023-07-20T11:31:02;2.00;;;1.80;;
3004;SDS011;1512;51.486;6.610;2023-07-20T11:35:12;1.90;;;1.80;;
3004;SDS011;1512;51.486;6.610;2023-07-20T11:39:21;3.30;;;2.10;;
3004;SDS011;1512;51.486;6.610;2023-07-20T11:43:33;2.17;;;1.97;;
3004;SDS011;1512;51.486;6.610;2023-07-20T11:47:43;2.07;;;1.87;;
3004;SDS011;1512;51.486;6.610;2023-07-20T11:51:51;2.30;;;2.10;;
3004;SDS011;1512;51.486;6.610;2023-07-20T11:56:00;2.92;;;2.00;;
3004;SDS011;1512;51.486;6.610;2023-07-20T12:00:09;2.60;;;2.00;;
3004;SDS011;1512;51.486;6.610;2023-07-20T12:04:19;3.70;;;2.30;;
3004;SDS011;1512;51.486;6.610;2023-07-20T12:08:32;3.63;;;2.30;;
3004;SDS011;1512;51.486;6.610;2023-07-20T12:12:41;2.70;;;2.10;;
3004;SDS011;1512;51.486;6.610;2023-07-20T12:16:52;2.47;;;2.27;;
3004;SDS011;1512;51.486;6.610;2023-07-20T12:21:02;2.40;;;2.20;;
3004;SDS011;1512;51.486;6.610;2023-07-20T12:25:11;2.20;;;1.97;;
3004;SDS011;1512;51.486;6.610;2023-07-20T12:29:20;2.10;;;1.90;;
3004;SDS011;1512;51.486;6.610;2023-07-20T12:33:28;1.90;;;1.70;;
3004;SDS011;1512;51.486;6.610;2023-07-20T12:37:37;2.20;;;2.00;;
3004;SDS011;1512;51.486;6.610;2023-07-20T12:41:46;1.90;;;1.77;;
3004;SDS011;1512;51.486;6.610;2023-07-20T12:45:55;2.23;;;2.03;;
3004;SDS011;1512;51.486;6.610;2023-07-20T12:50:04;2.10;;;1.90;;
3004;SDS011;1512;51.486;6.610;2023-07-20T12:54:13;3.53;;;2.10;;
3004;SDS011;1512;51.486;6.610;2023-07-20T12:58:22;2.00;;;1.80;;
3004;SDS011;1512;51.486;6.610;2023-07-20T13:02:31;2.30;;;2.10;;
3004;SDS011;1512;51.486;6.610;2023-07-20T13:06:41;2.30;;;1.73;;
3004;SDS011;1512;51.486;6.610;2023-07-20T13:10:49;2.90;;;2.30;;
3004;SDS011;1512;51.486;6.610;2023-07-20T13:14:58;2.20;;;2.00;;
3004;SDS011;1512;51.486;6.610;2023-07-20T13:23:37;2.60;;;2.30;;
3004;SDS011;1512;51.486;6.610;2023-07-20T13:32:14;1.97;;;1.77;;
3004;SDS011;1512;51.486;6.610;2023-07-20T13:36:24;2.35;;;2.15;;
3004;SDS011;1512;51.486;6.610;2023-07-20T13:40:35;4.63;;;2.40;;
3004;SDS011;1512;51.486;6.610;2023-07-20T13:44:43;1.80;;;1.70;;
3004;SDS011;1512;51.486;6.610;2023-07-20T13:48:53;2.73;;;2.33;;
3004;SDS011;1512;51.486;6.610;2023-07-20T13:53:03;2.20;;;2.00;;
3004;SDS011;1512;51.486;6.610;2023-07-20T13:57:14;3.07;;;2.43;;
3004;SDS011;1512;51.486;6.610;2023-07-20T14:01:23;2.10;;;1.90;;
3004;SDS011;1512;51.486;6.610;2023-07-20T14:05:33;4.23;;;2.60;;
3004;SDS011;1512;51.486;6.610;2023-07-20T14:09:43;2.00;;;1.80;;
3004;SDS011;1512;51.486;6.610;2023-07-20T14:13:54;2.53;;;2.00;;
3004;SDS011;1512;51.486;6.610;2023-07-20T14:18:03;1.83;;;1.70;;
3004;SDS011;1512;51.486;6.610;2023-07-20T14:22:12;2.20;;;2.00;;
3004;SDS011;1512;51.486;6.610;2023-07-20T14:26:20;2.30;;;2.10;;
3004;SDS011;1512;51.486;6.610;2023-07-20T14:30:30;1.80;;;1.70;;
3004;SDS011;1512;51.486;6.610;2023-07-20T14:34:38;3.67;;;2.03;;
3004;SDS011;1512;51.486;6.610;2023-07-20T14:38:47;2.83;;;2.07;;
3004;SDS011;1512;51.486;6.610;2023-07-20T14:42:56;2.30;;;1.87;;
3004;SDS011;1512;51.486;6.610;2023-07-20T14:47:06;2.47;;;2.00;;
3004;SDS011;1512;51.486;6.610;2023-07-20T14:51:17;2.80;;;2.23;;
3004;SDS011;1512;51.486;6.610;2023-07-20T14:55:25;2.57;;;2.17;;
3004;SDS011;1512;51.486;6.610;2023-07-20T14:59:34;2.30;;;2.10;;
3004;SDS011;1512;51.486;6.610;2023-07-20T15:03:43;2.30;;;2.10;;
3004;SDS011;1512;51.486;6.610;2023-07-20T15:07:51;2.90;;;2.47;;
3004;SDS011;1512;51.486;6.610;2023-07-20T15:12:00;2.93;;;2.33;;
3004;SDS011;1512;51.486;6.610;2023-07-20T15:16:09;2.50;;;2.30;;
3004;SDS011;1512;51.486;6.610;2023-07-20T15:20:18;2.90;;;2.40;;
3004;SDS011;1512;51.486;6.610;2023-07-20T15:24:27;2.70;;;2.10;;
3004;SDS011;1512;51.486;6.610;2023-07-20T15:28:35;6.90;;;2.53;;
3004;SDS011;1512;51.486;6.610;2023-07-20T15:32:44;3.00;;;2.70;;
3004;SDS011;1512;51.486;6.610;2023-07-20T15:36:55;3.80;;;2.70;;
3004;SDS011;1512;51.486;6.610;2023-07-20T15:41:03;2.40;;;2.20;;
3004;SDS011;1512;51.486;6.610;2023-07-20T15:45:12;2.60;;;2.40;;
3004;SDS011;1512;51.486;6.610;2023-07-20T15:49:21;2.33;;;2.13;;
3004;SDS011;1512;51.486;6.610;2023-07-20T15:53:31;2.80;;;2.50;;
3004;SDS011;1512;51.486;6.610;2023-07-20T15:57:40;2.20;;;2.00;;
3004;SDS011;1512;51.486;6.610;2023-07-20T16:01:48;3.47;;;2.70;;
3004;SDS011;1512;51.486;6.610;2023-07-20T16:05:59;2.77;;;2.40;;
3004;SDS011;1512;51.486;6.610;2023-07-20T16:10:10;2.83;;;2.40;;
3004;SDS011;1512;51.486;6.610;2023-07-20T16:14:18;2.60;;;2.40;;
3004;SDS011;1512;51.486;6.610;2023-07-20T16:18:27;2.50;;;2.30;;
3004;SDS011;1512;51.486;6.610;2023-07-20T16:31:32;2.77;;;2.50;;
3004;SDS011;1512;51.486;6.610;2023-07-20T16:35:41;2.95;;;2.35;;
3004;SDS011;1512;51.486;6.610;2023-07-20T16:39:51;2.30;;;2.10;;
3004;SDS011;1512;51.486;6.610;2023-07-20T16:44:00;2.80;;;2.20;;
3004;SDS011;1512;51.486;6.610;2023-07-20T16:48:10;2.63;;;2.40;;
3004;SDS011;1512;51.486;6.610;2023-07-20T16:52:20;2.40;;;2.20;;
3004;SDS011;1512;51.486;6.610;2023-07-20T16:56:29;2.57;;;2.37;;
3004;SDS011;1512;51.486;6.610;2023-07-20T17:00:37;2.40;;;2.10;;
3004;SDS011;1512;51.486;6.610;2023-07-20T17:04:47;2.30;;;2.10;;
3004;SDS011;1512;51.486;6.610;2023-07-20T17:08:56;2.50;;;2.30;;
3004;SDS011;1512;51.486;6.610;2023-07-20T17:13:07;2.60;;;2.40;;
3004;SDS011;1512;51.486;6.610;2023-07-20T17:17:17;6.43;;;2.50;;
3004;SDS011;1512;51.486;6.610;2023-07-20T17:21:27;4.87;;;2.90;;
3004;SDS011;1512;51.486;6.610;2023-07-20T17:25:41;3.20;;;2.53;;
3004;SDS011;1512;51.486;6.610;2023-07-20T17:29:56;3.00;;;2.17;;
3004;SDS011;1512;51.486;6.610;2023-07-20T17:34:06;3.93;;;2.27;;
3004;SDS011;1512;51.486;6.610;2023-07-20T17:38:14;3.13;;;2.83;;
3004;SDS011;1512;51.486;6.610;2023-07-20T17:42:25;2.80;;;2.60;;
3004;SDS011;1512;51.486;6.610;2023-07-20T17:46:35;3.00;;;2.80;;
3004;SDS011;1512;51.486;6.610;2023-07-20T17:50:46;3.40;;;2.90;;
3004;SDS011;1512;51.486;6.610;2023-07-20T17:54:55;2.77;;;2.27;;
3004;SDS011;1512;51.486;6.610;2023-07-20T17:59:04;3.70;;;2.60;;
3004;SDS011;1512;51.486;6.610;2023-07-20T18:03:13;2.77;;;2.57;;
3004;SDS011;1512;51.486;6.610;2023-07-20T18:07:21;2.70;;;2.50;;
3004;SDS011;1512;51.486;6.610;2023-07-20T18:11:30;3.63;;;2.50;;
3004;SDS011;1512;51.486;6.610;2023-07-20T18:15:39;2.50;;;2.30;;
3004;SDS011;1512;51.486;6.610;2023-07-20T18:19:47;3.70;;;2.67;;
3004;SDS011;1512;51.486;6.610;2023-07-20T18:23:56;2.60;;;2.30;;
3004;SDS011;1512;51.486;6.610;2023-07-20T18:28:05;4.23;;;2.67;;
3004;SDS011;1512;51.486;6.610;2023-07-20T18:36:42;2.40;;;2.20;;
3004;SDS011;1512;51.486;6.610;2023-07-20T18:40:50;3.03;;;2.73;;
3004;SDS011;1512;51.486;6.610;2023-07-20T18:44:59;3.10;;;2.80;;
3004;SDS011;1512;51.486;6.610;2023-07-20T18:49:08;2.77;;;2.40;;
3004;SDS011;1512;51.486;6.610;2023-07-20T18:53:16;4.23;;;2.53;;
3004;SDS011;1512;51.486;6.610;2023-07-20T18:57:25;3.20;;;2.90;;
3004;SDS011;1512;51.486;6.610;2023-07-20T19:06:02;2.50;;;2.30;;
3004;SDS011;1512;51.486;6.610;2023-07-20T19:10:11;3.17;;;2.90;;
3004;SDS011;1512;51.486;6.610;2023-07-20T19:14:21;3.07;;;2.70;;
3004;SDS011;1512;51.486;6.610;2023-07-20T19:18:29;3.63;;;3.33;;
3004;SDS011;1512;51.486;6.610;2023-07-20T19:22:38;4.03;;;3.10;;
3004;SDS011;1512;51.486;6.610;2023-07-20T19:26:47;3.13;;;2.83;;
3004;SDS011;1512;51.486;6.610;2023-07-20T19:30:55;3.80;;;3.07;;
3004;SDS011;1512;51.486;6.610;2023-07-20T19:35:04;3.03;;;2.73;;
3004;SDS011;1512;51.486;6.610;2023-07-20T19:39:13;3.70;;;3.27;;
3004;SDS011;1512;51.486;6.610;2023-07-20T19:43:22;2.60;;;2.40;;
3004;SDS011;1512;51.486;6.610;2023-07-20T19:47:31;3.30;;;3.00;;
3004;SDS011;1512;51.486;6.610;2023-07-20T19:51:40;2.80;;;2.60;;
3004;SDS011;1512;51.486;6.610;2023-07-20T19:55:49;3.90;;;3.30;;
3004;SDS011;1512;51.486;6.610;2023-07-20T19:59:57;3.77;;;3.47;;
3004;SDS011;1512;51.486;6.610;2023-07-20T20:04:06;3.80;;;3.27;;
3004;SDS011;1512;51.486;6.610;2023-07-20T20:08:17;3.70;;;3.40;;
3004;SDS011;1512;51.486;6.610;2023-07-20T20:12:27;3.80;;;3.50;;
3004;SDS011;1512;51.486;6.610;2023-07-20T20:16:36;3.43;;;3.17;;
3004;SDS011;1512;51.486;6.610;2023-07-20T20:20:45;3.40;;;3.10;;
3004;SDS011;1512;51.486;6.610;2023-07-20T20:24:54;4.53;;;3.73;;
3004;SDS011;1512;51.486;6.610;2023-07-20T20:29:03;3.60;;;3.30;;
3004;SDS011;1512;51.486;6.610;2023-07-20T20:33:11;4.80;;;3.40;;
3004;SDS011;1512;51.486;6.610;2023-07-20T20:37:21;3.60;;;3.30;;
3004;SDS011;1512;51.486;6.610;2023-07-20T20:41:31;3.40;;;3.10;;
3004;SDS011;1512;51.486;6.610;2023-07-20T20:45:42;3.20;;;2.90;;
3004;SDS011;1512;51.486;6.610;2023-07-20T20:49:50;3.50;;;3.20;;
3004;SDS011;1512;51.486;6.610;2023-07-20T20:54:00;3.50;;;3.20;;
3004;SDS011;1512;51.486;6.610;2023-07-20T20:58:10;3.90;;;3.30;;
3004;SDS011;1512;51.486;6.610;2023-07-20T21:02:19;3.50;;;3.20;;
3004;SDS011;1512;51.486;6.610;2023-07-20T21:06:28;3.43;;;3.13;;
3004;SDS011;1512;51.486;6.610;2023-07-20T21:10:36;3.70;;;3.40;;
3004;SDS011;1512;51.486;6.610;2023-07-20T21:14:45;3.50;;;3.20;;
3004;SDS011;1512;51.486;6.610;2023-07-20T21:18:54;3.70;;;3.03;;
3004;SDS011;1512;51.486;6.610;2023-07-20T21:23:03;3.70;;;2.80;;
3004;SDS011;1512;51.486;6.610;2023-07-20T21:31:32;3.10;;;2.80;;
3004;SDS011;1512;51.486;6.610;2023-07-20T21:35:41;2.80;;;2.60;;
3004;SDS011;1512;51.486;6.610;2023-07-20T21:39:50;3.70;;;3.30;;
3004;SDS011;1512;51.486;6.610;2023-07-20T21:43:59;3.70;;;3.40;;
3004;SDS011;1512;51.486;6.610;2023-07-20T21:48:08;3.30;;;3.00;;
3004;SDS011;1512;51.486;6.610;2023-07-20T21:52:17;3.60;;;3.27;;
3004;SDS011;1512;51.486;6.610;2023-07-20T21:56:25;3.57;;;3.27;;
3004;SDS011;1512;51.486;6.610;2023-07-20T22:00:34;3.60;;;3.27;;
3004;SDS011;1512;51.486;6.610;2023-07-20T22:04:43;5.27;;;3.80;;
3004;SDS011;1512;51.486;6.610;2023-07-20T22:08:52;2.97;;;2.77;;
3004;SDS011;1512;51.486;6.610;2023-07-20T22:13:01;3.10;;;2.80;;
3004;SDS011;1512;51.486;6.610;2023-07-20T22:17:10;3.40;;;3.07;;
3004;SDS011;1512;51.486;6.610;2023-07-20T22:21:23;4.33;;;3.93;;
3004;SDS011;1512;51.486;6.610;2023-07-20T22:25:32;3.93;;;3.07;;
3004;SDS011;1512;51.486;6.610;2023-07-20T22:29:40;3.50;;;3.20;;
3004;SDS011;1512;51.486;6.610;2023-07-20T22:33:49;4.63;;;3.60;;
3004;SDS011;1512;51.486;6.610;2023-07-20T22:37:59;3.37;;;3.03;;
3004;SDS011;1512;51.486;6.610;2023-07-20T22:42:08;3.37;;;3.07;;
3004;SDS011;1512;51.486;6.610;2023-07-20T22:46:17;2.93;;;2.67;;
3004;SDS011;1512;51.486;6.610;2023-07-20T22:50:26;3.60;;;3.17;;
3004;SDS011;1512;51.486;6.610;2023-07-20T22:54:34;5.20;;;3.70;;
3004;SDS011;1512;51.486;6.610;2023-07-20T22:58:44;4.17;;;3.87;;
3004;SDS011;1512;51.486;6.610;2023-07-20T23:02:53;5.60;;;3.87;;
3004;SDS011;1512;51.486;6.610;2023-07-20T23:07:03;5.30;;;4.00;;
3004;SDS011;1512;51.486;6.610;2023-07-20T23:11:12;4.60;;;4.20;;
3004;SDS011;1512;51.486;6.610;2023-07-20T23:15:21;4.23;;;3.73;;
3004;SDS011;1512;51.486;6.610;2023-07-20T23:19:30;3.40;;;3.10;;
3004;SDS011;1512;51.486;6.610;2023-07-20T23:23:38;4.20;;;3.80;;
3004;SDS011;1512;51.486;6.610;2023-07-20T23:27:48;3.73;;;3.43;;
3004;SDS011;1512;51.486;6.610;2023-07-20T23:32:02;4.57;;;4.17;;
3004;SDS011;1512;51.486;6.610;2023-07-20T23:36:10;4.30;;;3.90;;
3004;SDS011;1512;51.486;6.610;2023-07-20T23:40:19;4.30;;;4.00;;
3004;SDS011;1512;51.486;6.610;2023-07-20T23:44:29;4.70;;;4.27;;
3004;SDS011;1512;51.486;6.610;2023-07-20T23:48:38;4.90;;;3.87;;
3004;SDS011;1512;51.486;6.610;2023-07-20T23:52:48;4.80;;;4.10;;
3004;SDS011;1512;51.486;6.610;2023-07-20T23:56:57;5.00;;;4.50;;
